Bookmark and Share
Track history (hours):
 

Susquehanna

More information available from US FCC via Universal Licensing System and Coast Guard Vessel Documentation Center.

Last reported at 2014-Apr-25 04:33 UTC. Time now 2014-Apr-25 05:47 UTC.
Position N 40°35' W 074°02'.

Length 28 m; draft 4.2 m.

Type: Tug. MMSI: 367318750.

NotesDate/timePositionNaut miles runAvg speedWind from/ knotsBaromVisibWave heightAir tempDewpointWater temp
2014-Apr-25 04:33N 40°35' W 074°02'4 3.6
2014-Apr-25 03:33N 40°39' W 074°04'7 0.2
2014-Apr-23 09:16N 40°45' W 074°01'7 9.9
2014-Apr-23 08:34N 40°39' W 074°04'9 8.5
2014-Apr-23 07:33N 40°31' W 073°59'35 8.5
2014-Apr-23 03:30N 39°56' W 073°56'9 9.1
2014-Apr-23 02:33N 39°48' W 073°57'9 9.0
2014-Apr-23 01:33N 39°39' W 074°01'9 9.0
2014-Apr-23 00:31N 39°31' W 074°07'44 1.2
2014-Apr-21 11:23N 38°57' W 074°43'13 7.2
2014-Apr-21 09:33N 39°06' W 074°31'8 7.3
2014-Apr-21 08:28N 39°13' W 074°25'7 7.2
2014-Apr-21 07:26N 39°18' W 074°19'6 7.1
2014-Apr-21 06:33N 39°23' W 074°13'7 7.0
2014-Apr-21 05:33N 39°29' W 074°09'7 7.0
2014-Apr-21 04:33N 39°35' W 074°05'7 6.9
2014-Apr-21 03:33N 39°41' W 074°00'7 6.7
2014-Apr-21 02:33N 39°47' W 073°57'7 6.6
2014-Apr-21 01:33N 39°54' W 073°56'7 6.7
2014-Apr-21 00:33N 40°01' W 073°55'7 6.8
2014-Apr-20 23:28N 40°08' W 073°55'22 7.0
2014-Apr-20 20:21N 40°30' W 073°56'6 7.5
2014-Apr-20 19:33N 40°34' W 074°02'5 4.9
2014-Apr-20 18:33N 40°39' W 074°04'7 7.2
2014-Apr-20 17:32N 40°46' W 074°01'  

Dump ship's entire track history

sailing weather and tide predictions

Susquehanna — WDD9976 — position and weather